WetterOnline ( https://www.wetteronline.at )

Wetter aktuell St. Peter-Ording

Aktuelles Wetter: St. Peter-Ording (11m)

6-stündlich | Neueste Meldungen
Ortszeit Temperatur Wetter
Di, 25.02. 19:00 4.4° C bewölkt
Di, 25.02. 13:00 5.9° C wolkig
Di, 25.02. 7:00 5.9° C leichter Regen
Di, 25.02. 1:00 7.2° C bewölkt
Mo, 24.02. 19:00 1.2° C leichter Regen
Mo, 24.02. 13:00 5.3° C bedeckt
Mo, 24.02. 7:00 5.6° C bedeckt
Mo, 24.02. 1:00 6.3° C bewölkt
Ortszeit Temperatur Wetter
Di, 25.02. 19:00 4.4° C bewölkt
Di, 25.02. 18:50 4.4° C bewölkt
Di, 25.02. 18:40 4.5° C bewölkt
Di, 25.02. 18:30 4.5° C bewölkt
Di, 25.02. 18:20 4.5° C bewölkt
Di, 25.02. 18:10 4.8° C wolkig
Di, 25.02. 18:00 4.8° C wolkig
Di, 25.02. 17:30 4.6° C wolkig
Di, 25.02. 17:00 4.9° C leichter Regen
Di, 25.02. 16:30 5.4° C leicht bewölkt
Di, 25.02. 16:00 5.7° C wolkig
Ortszeit Relative Feuchte Sichtweite
Di, 25.02. 19:00 84% 30 km
Di, 25.02. 13:00 80% 11 km
Di, 25.02. 7:00 73% 15 km
Di, 25.02. 1:00 90% 10 km
Mo, 24.02. 19:00 99% -
Mo, 24.02. 13:00 93% 12 km
Mo, 24.02. 7:00 89% 18 km
Mo, 24.02. 1:00 81% 11 km
Ortszeit Relative Feuchte Sichtweite
Di, 25.02. 19:00 84% 30 km
Di, 25.02. 18:50 84% -
Di, 25.02. 18:40 81% -
Di, 25.02. 18:30 81% 29 km
Di, 25.02. 18:20 81% -
Di, 25.02. 18:10 83% -
Di, 25.02. 18:00 85% 21 km
Di, 25.02. 17:30 86% 25 km
Di, 25.02. 17:00 86% 11 km
Di, 25.02. 16:30 81% 19 km
Di, 25.02. 16:00 80% 19 km
Ortszeit Niederschlagsmenge Niederschlagsart
Di, 25.02. 19:00 0.8 l/m2 in 12 Std. Regen
Di, 25.02. 13:00 0.5 l/m2 in 6 Std. Schnee, Regen
Di, 25.02. 7:00 4 l/m2 in 12 Std. Regen
Di, 25.02. 1:00 4 l/m2 in 6 Std. Regen
Mo, 24.02. 19:00 10 l/m2 in 12 Std. Schnee, Regen
Mo, 24.02. 13:00 0.0 l/m2 in 6 Std. -
Mo, 24.02. 7:00 0.7 l/m2 in 12 Std. Sprühregen
Mo, 24.02. 1:00 0.7 l/m2 in 6 Std. Regen
Ortszeit Niederschlagsmenge Niederschlagsart
Di, 25.02. 19:00 0.1 l/m2 in 1 Std. Regen
Di, 25.02. 18:50 keine Meldung -
Di, 25.02. 18:40 keine Meldung -
Di, 25.02. 18:30 0.1 l/m2 in 1 Std. Schneeregen
Di, 25.02. 18:20 keine Meldung -
Di, 25.02. 18:10 keine Meldung -
Di, 25.02. 18:00 0.1 l/m2 in 1 Std. Regen
Di, 25.02. 17:30 0.1 l/m2 in 1 Std. Schneeregen
Di, 25.02. 17:00 0.1 l/m2 in 1 Std. Regen
Di, 25.02. 16:30 0.0 l/m2 in 1 Std. -
Di, 25.02. 16:00 0.2 l/m2 in 1 Std. Regen
Ortszeit Stärke Spitze Richtung
km/h Bft. km/h Grad Sektor
Di, 25.02. 19:00 40 6 94 260° W
Di, 25.02. 13:00 72 8 97 260° W
Di, 25.02. 7:00 61 7 94 250° W
Di, 25.02. 1:00 50 6 70 250° W
Mo, 24.02. 19:00 30 5 44 120° SO
Mo, 24.02. 13:00 22 4 33 190° S
Mo, 24.02. 7:00 22 4 61 290° W
Mo, 24.02. 1:00 50 7 76 270° W
Ortszeit Stärke Spitze Richtung
km/h Bft. km/h Grad Sektor
Di, 25.02. 19:00 40 6 58 260° W
Di, 25.02. 18:50 40 6 - 260° W
Di, 25.02. 18:40 43 6 - 260° W
Di, 25.02. 18:30 43 6 57 270° W
Di, 25.02. 18:20 43 6 - 270° W
Di, 25.02. 18:10 43 6 - 270° W
Di, 25.02. 18:00 43 6 61 260° W
Di, 25.02. 17:30 46 6 63 260° W
Di, 25.02. 17:00 50 7 76 260° W
Di, 25.02. 16:30 50 6 74 270° W
Di, 25.02. 16:00 56 7 78 260° W
Ortszeit Untergrenze Bedeckung Gattung
total tief tief mittel hoch
Di, 25.02. 19:00 1800 m 8/8 7/8 - - -
Di, 25.02. 13:00 660 m 6/8 6/8 - - -
Di, 25.02. 7:00 840 m 7/8 7/8 - - -
Di, 25.02. 1:00 570 m 7/8 7/8 - - -
Mo, 24.02. 19:00 180 m 8/8 8/8 - - -
Mo, 24.02. 13:00 150 m 8/8 8/8 - - -
Mo, 24.02. 7:00 4800 m 8/8 8/8 - - -
Mo, 24.02. 1:00 900 m 7/8 7/8 - - -
Ortszeit Bedeckungsgrad in Achtel und Wolkenuntergrenze
Di, 25.02. 19:00 3(1800m) 7(2700m) 8(3900m)
Di, 25.02. 18:50 3(1800m) 7(2700m) 8(3900m)
Di, 25.02. 18:40 3(1800m) 7(2400m) 8(4800m)
Di, 25.02. 18:30 1(510m) 7(2700m) 7(3900m)
Di, 25.02. 18:20 1(510m) 7(2700m) 7(3900m)
Di, 25.02. 18:10 2(540m) 7(3600m) 7(4500m)
Di, 25.02. 18:00 4(600m) 7(3600m) 7(5100m)
Di, 25.02. 17:30 1(660m) 6(4200m) 7(5400m)
Di, 25.02. 17:00 3(570m) 5(900m) 7(5400m)
Di, 25.02. 16:30 1(2700m) 6(4800m) 5(5100m)
Di, 25.02. 16:00 1(600m) 5(840m) 6(1080m)
Ortszeit Luftdruck NN (hPa) Tendenz (hPa in 3 Std.)
Di, 25.02. 19:00 991 + 0,9
Di, 25.02. 13:00 989 - 0,8
Di, 25.02. 7:00 991 - 0,3
Di, 25.02. 1:00 992 - 0,9
Mo, 24.02. 19:00 999 - 7,2
Mo, 24.02. 13:00 1013 - 3,5
Mo, 24.02. 7:00 1017 + 1,2
Mo, 24.02. 1:00 1014 + 3,0
Ortszeit Luftdruck NN (hPa) Tendenz (hPa in 3 Std.)
Di, 25.02. 19:00 991 + 0,9
Di, 25.02. 18:50 991 keine Meldung
Di, 25.02. 18:40 991 keine Meldung
Di, 25.02. 18:30 991 + 0,7
Di, 25.02. 18:20 991 keine Meldung
Di, 25.02. 18:10 991 keine Meldung
Di, 25.02. 18:00 991 + 1,0
Di, 25.02. 17:30 991 + 1,2
Di, 25.02. 17:00 990 + 1,3
Di, 25.02. 16:30 990 + 1,2
Di, 25.02. 16:00 990 + 1,2
Ortszeit Schneehöhe (cm)
Di, 25.02. 19:00 0
Di, 25.02. 13:00 0
Di, 25.02. 7:00 0
Di, 25.02. 1:00 0
Mo, 24.02. 19:00 0
Mo, 24.02. 13:00 0
Mo, 24.02. 7:00 0
Mo, 24.02. 1:00 0
Ortszeit Schneehöhe (cm)
Di, 25.02. 19:00 0
Di, 25.02. 18:50 0
Di, 25.02. 18:40 0
Di, 25.02. 18:30 0
Di, 25.02. 18:20 0
Di, 25.02. 18:10 0
Di, 25.02. 18:00 0
Di, 25.02. 17:30 0
Di, 25.02. 17:00 0
Di, 25.02. 16:30 0
Di, 25.02. 16:00 0
Link zu dieser Seite / Seite empfehlen

Das Wetter in ...